Aviation Digital Data Service (ADDS)

Output produced by METARs form (2336 UTC 30 October 2014)
found at http://aviationweather.gov/adds/metars/
 
KPSM 302322Z 3100/3124 33005KT P6SM SCT200 
     FM311400 04006KT P6SM BKN200 
     FM311800 09007KT P6SM BKN050